Time;durP1;ratioP1;P1;durP2;ratioP2;P2;SDS_P1;SDS_P2;PMS_P1;PMS_P2;Temp;Humidity;BMP_temperature;BMP_pressure;BME280_temperature;BME280_humidity;BME280_pressure;Samples;Min_cycle;Max_cycle;Signal;HPM_P1;HPM_P2
2023/06/18 00:02:23;;;;;;;7.80;5.82;;;;;;;;;;5020934;28;20123;-76
2023/06/18 00:04:48;;;;;;;6.75;5.50;;;;;;;;;;5022823;28;20045;-77
2023/06/18 00:07:14;;;;;;;7.45;5.65;;;;;;;;;;5038620;28;20050;-77
2023/06/18 00:09:39;;;;;;;12.52;5.88;;;;;;;;;;4986082;28;1086016;-77
2023/06/18 00:12:05;;;;;;;9.95;5.85;;;;;;;;;;5021761;28;20061;-77
2023/06/18 00:14:30;;;;;;;9.63;5.47;;;;;;;;;;5023280;28;20080;-77
2023/06/18 00:16:56;;;;;;;7.47;5.60;;;;;;;;;;5023931;28;20068;-77
2023/06/18 00:19:21;;;;;;;10.32;5.63;;;;;;;;;;5003866;28;20592;-77
2023/06/18 00:21:47;;;;;;;12.40;6.00;;;;;;;;;;5036364;28;20042;-76
2023/06/18 00:24:13;;;;;;;7.63;6.00;;;;;;;;;;5021659;28;20045;-76
2023/06/18 00:26:39;;;;;;;8.77;6.22;;;;;;;;;;5022039;28;20060;-76
2023/06/18 00:29:05;;;;;;;8.57;5.45;;;;;;;;;;5023612;28;20160;-77
2023/06/18 00:31:34;;;;;;;8.73;5.95;;;;;;;;;;5021120;28;20658;-77
2023/06/18 00:34:06;;;;;;;9.00;6.07;;;;;;;;;;5021291;28;20041;-76
2023/06/18 00:36:33;;;;;;;7.85;6.55;;;;;;;;;;5022665;28;20926;-76
2023/06/18 00:39:02;;;;;;;10.73;7.18;;;;;;;;;;5022071;28;20057;-76
2023/06/18 00:41:29;;;;;;;9.80;7.47;;;;;;;;;;5020957;28;20049;-76
2023/06/18 00:43:57;;;;;;;7.97;6.20;;;;;;;;;;5023337;28;20052;-77
2023/06/18 00:46:26;;;;;;;9.18;5.85;;;;;;;;;;5027099;28;20135;-77
2023/06/18 00:48:53;;;;;;;10.55;6.65;;;;;;;;;;5011505;28;20064;-77
2023/06/18 00:51:21;;;;;;;8.93;6.47;;;;;;;;;;5024199;28;20556;-76
2023/06/18 00:53:46;;;;;;;9.45;6.63;;;;;;;;;;5021933;28;20129;-77
2023/06/18 00:56:12;;;;;;;11.90;6.70;;;;;;;;;;5026369;28;20069;-76
2023/06/18 00:58:39;;;;;;;6.93;6.00;;;;;;;;;;5042075;28;20053;-76
2023/06/18 01:01:08;;;;;;;8.77;6.60;;;;;;;;;;5026882;28;20058;-77
2023/06/18 01:03:34;;;;;;;12.80;6.95;;;;;;;;;;5009521;28;20077;-77
2023/06/18 01:06:03;;;;;;;6.72;5.88;;;;;;;;;;5027372;28;20044;-76
2023/06/18 01:08:33;;;;;;;9.73;6.85;;;;;;;;;;5026734;28;20049;-77
2023/06/18 01:11:04;;;;;;;10.65;7.90;;;;;;;;;;5008730;28;20156;-77
2023/06/18 01:13:33;;;;;;;8.75;7.18;;;;;;;;;;5039152;28;20045;-77
2023/06/18 01:16:05;;;;;;;15.70;7.53;;;;;;;;;;5005898;28;20820;-77
2023/06/18 01:18:39;;;;;;;13.02;7.93;;;;;;;;;;5020692;28;20065;-76
2023/06/18 01:21:09;;;;;;;13.23;7.85;;;;;;;;;;5020774;28;20048;-76
2023/06/18 01:23:50;;;;;;;11.05;7.07;;;;;;;;;;5022261;28;20041;-76
2023/06/18 01:26:20;;;;;;;12.48;7.47;;;;;;;;;;5005501;28;20059;-76
2023/06/18 01:28:53;;;;;;;10.95;8.25;;;;;;;;;;5006249;28;20053;-76
2023/06/18 01:31:23;;;;;;;11.05;7.22;;;;;;;;;;5001929;28;20164;-77
2023/06/18 01:33:51;;;;;;;16.52;7.60;;;;;;;;;;5004310;28;20048;-76
2023/06/18 01:36:37;;;;;;;12.38;7.28;;;;;;;;;;5005065;28;20045;-76
2023/06/18 01:39:29;;;;;;;10.15;7.57;;;;;;;;;;5013660;28;20049;-76
2023/06/18 01:42:07;;;;;;;8.70;7.03;;;;;;;;;;5015849;28;20041;-77
2023/06/18 01:44:35;;;;;;;13.68;7.40;;;;;;;;;;4997118;28;20136;-76
2023/06/18 01:47:01;;;;;;;10.40;7.63;;;;;;;;;;5021766;28;20045;-76
2023/06/18 01:49:31;;;;;;;9.23;7.32;;;;;;;;;;5005474;28;20072;-76
2023/06/18 01:52:02;;;;;;;10.70;7.60;;;;;;;;;;5021603;28;20498;-77
2023/06/18 01:54:28;;;;;;;11.13;8.15;;;;;;;;;;5004504;28;20049;-76
2023/06/18 01:56:54;;;;;;;10.15;7.93;;;;;;;;;;5023868;28;20250;-76
2023/06/18 01:59:20;;;;;;;10.50;7.65;;;;;;;;;;5024116;28;20087;-76
2023/06/18 02:01:46;;;;;;;12.75;7.95;;;;;;;;;;5006337;28;20041;-76
2023/06/18 02:04:11;;;;;;;18.25;7.45;;;;;;;;;;5000101;28;20503;-76
2023/06/18 02:06:36;;;;;;;13.98;7.57;;;;;;;;;;5004126;28;20132;-76
2023/06/18 02:09:03;;;;;;;14.13;8.40;;;;;;;;;;5004494;28;20445;-76
2023/06/18 02:11:29;;;;;;;15.07;8.15;;;;;;;;;;5020962;28;20060;-78
2023/06/18 02:13:54;;;;;;;12.82;7.72;;;;;;;;;;5021794;28;20066;-76
2023/06/18 02:16:19;;;;;;;9.93;7.60;;;;;;;;;;5020616;28;20087;-76
2023/06/18 02:18:45;;;;;;;12.25;7.60;;;;;;;;;;5020649;28;20049;-76
2023/06/18 02:21:11;;;;;;;10.05;7.65;;;;;;;;;;5003338;28;20061;-76
2023/06/18 02:23:36;;;;;;;12.15;8.02;;;;;;;;;;5020316;28;20045;-76
2023/06/18 02:26:03;;;;;;;14.45;7.80;;;;;;;;;;5004282;28;20152;-76
2023/06/18 02:28:29;;;;;;;12.55;6.97;;;;;;;;;;5037273;28;20044;-76
2023/06/18 02:30:57;;;;;;;14.38;7.40;;;;;;;;;;5038588;28;20045;-76
2023/06/18 02:33:22;;;;;;;10.48;7.38;;;;;;;;;;5021805;28;20041;-76
2023/06/18 02:35:48;;;;;;;8.50;6.90;;;;;;;;;;5004396;28;20401;-76
2023/06/18 02:38:13;;;;;;;12.57;7.55;;;;;;;;;;5003206;28;20037;-76
2023/06/18 02:40:39;;;;;;;9.23;7.45;;;;;;;;;;4995204;28;20053;-76
2023/06/18 02:43:05;;;;;;;7.97;6.75;;;;;;;;;;5004003;28;20473;-76
2023/06/18 02:45:31;;;;;;;12.45;7.10;;;;;;;;;;5004272;28;20041;-77
2023/06/18 02:47:57;;;;;;;9.52;6.55;;;;;;;;;;5020449;28;20088;-76
2023/06/18 02:50:23;;;;;;;11.70;6.63;;;;;;;;;;5018726;28;20533;-77
2023/06/18 02:52:48;;;;;;;16.40;6.95;;;;;;;;;;5004102;28;20071;-77
2023/06/18 02:55:14;;;;;;;10.25;7.30;;;;;;;;;;5021209;28;20125;-77
2023/06/18 02:57:41;;;;;;;12.27;6.82;;;;;;;;;;5020705;28;20044;-76
2023/06/18 03:00:11;;;;;;;9.38;6.75;;;;;;;;;;5020069;28;20057;-76
2023/06/18 03:02:40;;;;;;;10.73;7.18;;;;;;;;;;5002658;28;20045;-76
2023/06/18 03:05:08;;;;;;;8.68;6.63;;;;;;;;;;5019151;28;20231;-76
2023/06/18 03:07:33;;;;;;;9.35;7.15;;;;;;;;;;5036149;28;20053;-76
2023/06/18 03:09:59;;;;;;;9.23;6.80;;;;;;;;;;5018987;28;20033;-76
2023/06/18 03:12:25;;;;;;;10.73;6.80;;;;;;;;;;5000830;28;20053;-76
2023/06/18 03:14:51;;;;;;;10.90;7.03;;;;;;;;;;5019408;28;20046;-77
2023/06/18 03:17:18;;;;;;;11.50;7.38;;;;;;;;;;5019101;28;20049;-76
2023/06/18 03:19:45;;;;;;;8.90;7.20;;;;;;;;;;5018852;28;20048;-76
2023/06/18 03:22:11;;;;;;;8.77;6.80;;;;;;;;;;5017681;28;20049;-75
2023/06/18 03:24:38;;;;;;;10.52;7.00;;;;;;;;;;5019497;28;20045;-77
2023/06/18 03:27:06;;;;;;;12.00;7.13;;;;;;;;;;5003884;28;20128;-76
2023/06/18 03:29:34;;;;;;;7.75;6.90;;;;;;;;;;5000777;28;20056;-76
2023/06/18 03:32:02;;;;;;;10.70;6.85;;;;;;;;;;5016897;28;20090;-76
2023/06/18 03:34:31;;;;;;;8.88;7.05;;;;;;;;;;4999932;28;20472;-76
2023/06/18 03:37:00;;;;;;;11.10;7.13;;;;;;;;;;5016842;28;20045;-76
2023/06/18 03:39:26;;;;;;;8.10;6.45;;;;;;;;;;5000284;28;20041;-76
2023/06/18 03:41:51;;;;;;;8.52;6.50;;;;;;;;;;5001148;28;20045;-76
2023/06/18 03:44:17;;;;;;;8.40;6.68;;;;;;;;;;5034334;28;20132;-76
2023/06/18 03:46:43;;;;;;;13.15;7.72;;;;;;;;;;5021184;28;20671;-76
2023/06/18 03:49:09;;;;;;;8.82;7.03;;;;;;;;;;5000943;28;20742;-76
2023/06/18 03:51:35;;;;;;;7.93;6.63;;;;;;;;;;5002374;28;20045;-76
2023/06/18 03:54:01;;;;;;;10.60;6.97;;;;;;;;;;5018411;28;20199;-75
2023/06/18 03:56:26;;;;;;;10.32;7.05;;;;;;;;;;4999745;28;20497;-75
2023/06/18 03:58:52;;;;;;;11.30;6.75;;;;;;;;;;5017187;28;20053;-76
2023/06/18 04:01:19;;;;;;;10.90;6.50;;;;;;;;;;5018015;28;20136;-76
2023/06/18 04:03:44;;;;;;;11.07;7.65;;;;;;;;;;5001934;28;20037;-76
2023/06/18 04:06:10;;;;;;;10.38;7.57;;;;;;;;;;5017630;28;20049;-76
2023/06/18 04:08:36;;;;;;;14.10;7.35;;;;;;;;;;5033253;28;20034;-76
2023/06/18 04:11:02;;;;;;;9.30;7.10;;;;;;;;;;5016936;28;20050;-76
2023/06/18 04:13:30;;;;;;;8.40;7.10;;;;;;;;;;5000456;28;20518;-76
2023/06/18 04:15:57;;;;;;;10.13;7.70;;;;;;;;;;5029184;28;20033;-76
2023/06/18 04:18:24;;;;;;;13.18;7.65;;;;;;;;;;5015812;28;20056;-80
2023/06/18 04:20:50;;;;;;;12.73;7.55;;;;;;;;;;5000194;28;20050;-76
2023/06/18 04:23:17;;;;;;;15.32;7.72;;;;;;;;;;5001620;28;20045;-76
2023/06/18 04:25:43;;;;;;;10.50;7.90;;;;;;;;;;5018526;28;20053;-75
2023/06/18 04:28:08;;;;;;;10.82;8.55;;;;;;;;;;5033313;28;20053;-76
2023/06/18 04:30:34;;;;;;;12.07;7.88;;;;;;;;;;5001519;28;20040;-76
2023/06/18 04:33:01;;;;;;;12.52;8.05;;;;;;;;;;5002753;28;20509;-76
2023/06/18 04:35:26;;;;;;;10.48;7.88;;;;;;;;;;5019930;28;20049;-76
2023/06/18 04:37:52;;;;;;;8.82;7.22;;;;;;;;;;5001512;28;20533;-75
2023/06/18 04:40:18;;;;;;;11.38;7.00;;;;;;;;;;5033626;28;20045;-76
2023/06/18 04:42:46;;;;;;;9.10;7.50;;;;;;;;;;5000623;28;20073;-76
2023/06/18 04:45:17;;;;;;;13.13;7.85;;;;;;;;;;5004618;28;20218;-76
2023/06/18 04:47:42;;;;;;;12.73;7.88;;;;;;;;;;5005523;28;20509;-76
2023/06/18 04:50:08;;;;;;;10.15;8.02;;;;;;;;;;5021818;28;20041;-76
2023/06/18 04:52:39;;;;;;;11.23;8.43;;;;;;;;;;5005285;28;20038;-76
2023/06/18 04:55:05;;;;;;;13.80;7.93;;;;;;;;;;5021935;28;20049;-76
2023/06/18 04:57:31;;;;;;;13.25;8.30;;;;;;;;;;5020124;28;20770;-76
2023/06/18 04:59:57;;;;;;;9.57;7.00;;;;;;;;;;5020216;28;20048;-76
2023/06/18 05:02:23;;;;;;;11.43;7.10;;;;;;;;;;5020083;28;20095;-76
2023/06/18 05:04:48;;;;;;;10.75;7.30;;;;;;;;;;5004236;28;20913;-76
2023/06/18 05:07:16;;;;;;;13.23;7.45;;;;;;;;;;5004594;28;20517;-75
2023/06/18 05:09:41;;;;;;;9.63;7.18;;;;;;;;;;5021474;28;20056;-75
2023/06/18 05:12:08;;;;;;;9.52;6.82;;;;;;;;;;5003251;28;20049;-76
2023/06/18 05:14:34;;;;;;;12.45;6.45;;;;;;;;;;5020776;28;20053;-76
2023/06/18 05:17:00;;;;;;;9.50;7.10;;;;;;;;;;5005561;28;20045;-76
2023/06/18 05:19:25;;;;;;;10.50;7.45;;;;;;;;;;5037959;28;20461;-76
2023/06/18 05:21:51;;;;;;;7.50;6.45;;;;;;;;;;5021622;28;20111;-76
2023/06/18 05:24:18;;;;;;;8.48;6.68;;;;;;;;;;5020615;28;20068;-75
2023/06/18 05:26:44;;;;;;;9.55;6.50;;;;;;;;;;4998926;28;20049;-76
2023/06/18 05:29:10;;;;;;;8.45;6.75;;;;;;;;;;5020719;28;20064;-76
2023/06/18 05:31:36;;;;;;;7.13;6.28;;;;;;;;;;5022327;28;20099;-77
2023/06/18 05:34:05;;;;;;;10.23;6.78;;;;;;;;;;5003405;28;20639;-75
2023/06/18 05:36:31;;;;;;;8.40;6.78;;;;;;;;;;5036091;28;20128;-77
2023/06/18 05:38:59;;;;;;;7.03;6.30;;;;;;;;;;5027678;28;20069;-74
2023/06/18 05:41:27;;;;;;;11.13;6.50;;;;;;;;;;5019463;28;20111;-74
2023/06/18 05:43:53;;;;;;;8.13;6.60;;;;;;;;;;5017677;28;20064;-74
2023/06/18 05:46:18;;;;;;;8.23;6.03;;;;;;;;;;4999346;28;20160;-74
2023/06/18 05:48:44;;;;;;;10.68;7.07;;;;;;;;;;5019113;28;20128;-75
2023/06/18 05:51:17;;;;;;;8.80;6.40;;;;;;;;;;5017990;28;20195;-74
2023/06/18 05:53:43;;;;;;;7.15;6.13;;;;;;;;;;5005183;28;20120;-75
2023/06/18 05:56:09;;;;;;;8.32;5.90;;;;;;;;;;5035251;28;20045;-75
2023/06/18 05:58:35;;;;;;;8.68;5.75;;;;;;;;;;5010740;28;20041;-75
2023/06/18 06:01:01;;;;;;;7.72;5.80;;;;;;;;;;5019949;28;20184;-75
2023/06/18 06:03:26;;;;;;;10.90;5.97;;;;;;;;;;5020097;28;20118;-76
2023/06/18 06:05:52;;;;;;;9.52;5.97;;;;;;;;;;5021181;28;20526;-79
2023/06/18 06:08:17;;;;;;;6.63;5.28;;;;;;;;;;5010565;28;20069;-76
2023/06/18 06:10:47;;;;;;;6.15;5.50;;;;;;;;;;5023320;28;20206;-76
2023/06/18 06:13:14;;;;;;;8.45;6.10;;;;;;;;;;5015885;28;20048;-75
2023/06/18 06:15:41;;;;;;;8.38;5.90;;;;;;;;;;5017492;28;20041;-75
2023/06/18 06:18:07;;;;;;;10.88;5.60;;;;;;;;;;4998670;28;20181;-75
2023/06/18 06:20:32;;;;;;;7.35;5.97;;;;;;;;;;5017117;28;20050;-75
2023/06/18 06:22:58;;;;;;;6.85;5.85;;;;;;;;;;5026449;28;20048;-75
2023/06/18 06:25:25;;;;;;;7.50;5.90;;;;;;;;;;5033427;28;20044;-76
2023/06/18 06:27:50;;;;;;;7.72;6.25;;;;;;;;;;5016052;28;20053;-76
2023/06/18 06:30:16;;;;;;;8.63;6.00;;;;;;;;;;5000190;28;20119;-75
2023/06/18 06:32:42;;;;;;;7.43;6.30;;;;;;;;;;5000878;28;20637;-76
2023/06/18 06:35:07;;;;;;;7.80;5.85;;;;;;;;;;5000837;28;20577;-76
2023/06/18 06:37:33;;;;;;;10.52;6.65;;;;;;;;;;5018096;28;21078;-75
2023/06/18 06:40:02;;;;;;;10.98;6.05;;;;;;;;;;5000628;28;20041;-75
2023/06/18 06:42:30;;;;;;;8.20;6.75;;;;;;;;;;5033445;28;20057;-75
2023/06/18 06:45:14;;;;;;;8.20;5.93;;;;;;;;;;5017930;28;20079;-74
2023/06/18 06:48:00;;;;;;;8.65;6.25;;;;;;;;;;5019023;28;20048;-74
2023/06/18 06:50:37;;;;;;;7.22;5.65;;;;;;;;;;5018045;28;20130;-74
2023/06/18 06:53:18;;;;;;;6.82;5.15;;;;;;;;;;5018704;28;20094;-73
2023/06/18 06:55:43;;;;;;;12.35;5.65;;;;;;;;;;5002707;28;20361;-74
2023/06/18 06:58:12;;;;;;;6.93;6.05;;;;;;;;;;5004828;28;20064;-74
2023/06/18 07:00:37;;;;;;;11.52;5.88;;;;;;;;;;5033543;28;20041;-76
2023/06/18 07:03:03;;;;;;;12.70;5.90;;;;;;;;;;5033218;28;20727;-77
2023/06/18 07:05:28;;;;;;;9.25;5.38;;;;;;;;;;5033537;28;20647;-76
2023/06/18 07:07:54;;;;;;;8.10;5.75;;;;;;;;;;5018137;28;20156;-78
2023/06/18 07:10:20;;;;;;;7.60;5.50;;;;;;;;;;5018081;28;20041;-78
2023/06/18 07:12:45;;;;;;;6.07;5.50;;;;;;;;;;5018228;28;21212;-77
2023/06/18 07:15:10;;;;;;;8.65;5.43;;;;;;;;;;5020204;28;20232;-78
2023/06/18 07:17:36;;;;;;;9.23;5.30;;;;;;;;;;5020635;28;20041;-78
2023/06/18 07:20:01;;;;;;;6.57;5.10;;;;;;;;;;5002678;28;20384;-78
2023/06/18 07:22:26;;;;;;;8.48;5.53;;;;;;;;;;5018471;28;20041;-79
2023/06/18 07:24:53;;;;;;;6.03;5.40;;;;;;;;;;5021122;28;20045;-79
2023/06/18 07:27:19;;;;;;;7.78;5.55;;;;;;;;;;5019280;28;20134;-77
2023/06/18 07:29:45;;;;;;;10.27;5.47;;;;;;;;;;5018303;28;20756;-77
2023/06/18 07:32:10;;;;;;;7.05;5.20;;;;;;;;;;5020180;28;21041;-77
2023/06/18 07:34:35;;;;;;;10.35;5.68;;;;;;;;;;5033054;28;20049;-77
2023/06/18 07:37:01;;;;;;;8.88;5.93;;;;;;;;;;5020199;28;20530;-77
2023/06/18 07:39:26;;;;;;;7.50;5.68;;;;;;;;;;5020183;28;20483;-77
2023/06/18 07:41:52;;;;;;;7.70;6.35;;;;;;;;;;5020143;28;20458;-77
2023/06/18 07:44:17;;;;;;;6.97;5.72;;;;;;;;;;5020096;28;20075;-77
2023/06/18 07:46:43;;;;;;;6.60;5.43;;;;;;;;;;5017253;28;20041;-77
2023/06/18 07:49:09;;;;;;;9.77;6.15;;;;;;;;;;5017661;28;20132;-77
2023/06/18 07:51:35;;;;;;;6.80;5.22;;;;;;;;;;5017974;28;20262;-77
2023/06/18 07:54:00;;;;;;;7.15;5.45;;;;;;;;;;5018049;28;20049;-77
2023/06/18 07:56:26;;;;;;;10.85;5.80;;;;;;;;;;5018386;28;20056;-77
2023/06/18 07:58:52;;;;;;;7.32;5.60;;;;;;;;;;5018594;28;20049;-77
2023/06/18 08:01:18;;;;;;;8.35;5.60;;;;;;;;;;5017744;28;20481;-78
2023/06/18 08:03:44;;;;;;;11.35;5.85;;;;;;;;;;5019064;28;20046;-77
2023/06/18 08:06:10;;;;;;;6.20;5.38;;;;;;;;;;5019361;28;20054;-78
2023/06/18 08:08:35;;;;;;;8.50;5.75;;;;;;;;;;5013301;28;20474;-78
2023/06/18 08:11:00;;;;;;;6.93;5.85;;;;;;;;;;5019306;28;20061;-78
2023/06/18 08:13:26;;;;;;;8.52;5.60;;;;;;;;;;5018881;28;20041;-77
2023/06/18 08:15:51;;;;;;;7.50;5.05;;;;;;;;;;5019096;28;20049;-77
2023/06/18 08:18:17;;;;;;;6.82;5.43;;;;;;;;;;5018755;28;20037;-77
2023/06/18 08:20:42;;;;;;;6.88;4.78;;;;;;;;;;5020723;28;20517;-77
2023/06/18 08:23:07;;;;;;;10.98;5.05;;;;;;;;;;5023990;28;20041;-77
2023/06/18 08:25:33;;;;;;;5.70;5.10;;;;;;;;;;5022695;28;20443;-77
2023/06/18 08:27:58;;;;;;;7.07;4.88;;;;;;;;;;5038112;28;20041;-77
2023/06/18 08:30:24;;;;;;;5.50;4.70;;;;;;;;;;5021009;28;20037;-77
2023/06/18 08:32:50;;;;;;;9.30;5.18;;;;;;;;;;5022482;28;20041;-77
2023/06/18 08:35:16;;;;;;;9.45;5.28;;;;;;;;;;5023052;28;20505;-77
2023/06/18 08:37:42;;;;;;;6.20;4.82;;;;;;;;;;5022825;28;20110;-77
2023/06/18 08:40:12;;;;;;;8.00;4.82;;;;;;;;;;5024139;28;20073;-79
2023/06/18 08:42:38;;;;;;;6.68;4.85;;;;;;;;;;5022737;28;20149;-77
2023/06/18 08:45:05;;;;;;;6.72;4.82;;;;;;;;;;5021221;28;20136;-77
2023/06/18 08:47:33;;;;;;;9.48;5.28;;;;;;;;;;5022637;28;20045;-76
2023/06/18 08:49:59;;;;;;;5.22;4.13;;;;;;;;;;5020785;28;20072;-76
2023/06/18 08:52:27;;;;;;;6.78;4.50;;;;;;;;;;5019211;28;20061;-76
2023/06/18 08:54:56;;;;;;;9.13;4.50;;;;;;;;;;5021195;28;20099;-78
2023/06/18 08:57:48;;;;;;;5.20;4.50;;;;;;;;;;5010736;28;20124;-78
2023/06/18 09:00:14;;;;;;;6.82;4.85;;;;;;;;;;5035658;28;20041;-77
2023/06/18 09:02:40;;;;;;;4.20;3.80;;;;;;;;;;5019543;28;20449;-79
2023/06/18 09:05:08;;;;;;;6.43;4.45;;;;;;;;;;5021848;28;20080;-78
2023/06/18 09:07:35;;;;;;;7.30;4.47;;;;;;;;;;5023280;28;20407;-77
2023/06/18 09:10:03;;;;;;;5.35;3.55;;;;;;;;;;5021505;28;20053;-78
2023/06/18 09:12:29;;;;;;;7.55;4.53;;;;;;;;;;5021780;28;20037;-77
2023/06/18 09:14:54;;;;;;;7.07;4.20;;;;;;;;;;5021751;28;20052;-76
2023/06/18 09:17:22;;;;;;;4.20;3.72;;;;;;;;;;5022684;28;20183;-77
2023/06/18 09:19:48;;;;;;;4.60;3.92;;;;;;;;;;5022056;28;20056;-76
2023/06/18 09:22:18;;;;;;;4.65;4.07;;;;;;;;;;5021325;28;20217;-77
2023/06/18 09:24:59;;;;;;;4.75;4.15;;;;;;;;;;5019220;28;20045;-77
2023/06/18 09:27:32;;;;;;;4.45;3.97;;;;;;;;;;5020014;28;20049;-77
2023/06/18 09:29:57;;;;;;;4.50;4.10;;;;;;;;;;5021005;28;20136;-76
2023/06/18 09:32:23;;;;;;;5.38;4.43;;;;;;;;;;5022160;28;20837;-78
2023/06/18 09:34:48;;;;;;;6.90;4.97;;;;;;;;;;5021867;28;20057;-77
2023/06/18 09:37:14;;;;;;;4.40;3.90;;;;;;;;;;5020901;28;20053;-78
2023/06/18 09:39:40;;;;;;;5.45;4.47;;;;;;;;;;5021934;28;20108;-77
2023/06/18 09:42:11;;;;;;;5.20;4.70;;;;;;;;;;5020039;28;20053;-77
2023/06/18 09:44:37;;;;;;;4.93;4.35;;;;;;;;;;5022497;28;20045;-77
2023/06/18 09:47:10;;;;;;;6.40;4.63;;;;;;;;;;5025509;28;20092;-76
2023/06/18 09:49:36;;;;;;;5.28;4.28;;;;;;;;;;5020727;28;20037;-76
2023/06/18 09:52:04;;;;;;;6.20;4.15;;;;;;;;;;5020180;28;20095;-75
2023/06/18 09:54:38;;;;;;;5.10;4.32;;;;;;;;;;5019948;28;20384;-76
2023/06/18 09:57:06;;;;;;;5.07;4.38;;;;;;;;;;5021769;28;20775;-77
2023/06/18 09:59:31;;;;;;;7.38;4.55;;;;;;;;;;5020863;28;20045;-76
2023/06/18 10:01:57;;;;;;;5.43;4.47;;;;;;;;;;5036533;28;20045;-73
2023/06/18 10:04:23;;;;;;;6.85;4.55;;;;;;;;;;5021470;28;20138;-74
2023/06/18 10:07:02;;;;;;;6.22;4.68;;;;;;;;;;5019207;28;20045;-76
2023/06/18 10:09:39;;;;;;;5.18;4.18;;;;;;;;;;5007557;28;20467;-74
2023/06/18 10:12:05;;;;;;;4.75;4.10;;;;;;;;;;5021098;28;21038;-74
2023/06/18 10:14:32;;;;;;;5.38;4.03;;;;;;;;;;5020901;28;20157;-77
2023/06/18 10:17:05;;;;;;;4.97;4.47;;;;;;;;;;5019846;28;20049;-73
2023/06/18 10:19:42;;;;;;;8.80;4.88;;;;;;;;;;5019066;28;20057;-74
2023/06/18 10:22:11;;;;;;;5.38;4.60;;;;;;;;;;5020761;28;20068;-74
2023/06/18 10:24:41;;;;;;;5.13;4.57;;;;;;;;;;5020504;28;20395;-75
2023/06/18 10:27:07;;;;;;;5.78;4.40;;;;;;;;;;5022354;28;20057;-75
2023/06/18 10:29:33;;;;;;;4.55;4.15;;;;;;;;;;5021453;28;20052;-75
2023/06/18 10:32:03;;;;;;;4.80;4.00;;;;;;;;;;5002808;28;20049;-75
2023/06/18 10:34:30;;;;;;;7.32;4.13;;;;;;;;;;5020015;28;20057;-76
2023/06/18 10:36:57;;;;;;;8.48;4.68;;;;;;;;;;5006490;28;20041;-74
2023/06/18 10:39:23;;;;;;;10.18;3.97;;;;;;;;;;5024055;28;20057;-77
2023/06/18 10:41:51;;;;;;;5.38;4.38;;;;;;;;;;5020864;28;20528;-75
2023/06/18 10:44:31;;;;;;;4.13;3.72;;;;;;;;;;5022607;28;20402;-75
2023/06/18 10:47:18;;;;;;;5.82;4.32;;;;;;;;;;5005565;28;20125;-74
2023/06/18 10:50:03;;;;;;;6.32;4.43;;;;;;;;;;5021845;28;20041;-74
2023/06/18 10:52:32;;;;;;;11.43;4.68;;;;;;;;;;5034924;28;22349;-74
2023/06/18 10:55:20;;;;;;;12.18;4.28;;;;;;;;;;5022758;28;20056;-75
2023/06/18 10:57:47;;;;;;;8.40;4.55;;;;;;;;;;5020738;28;20041;-75
2023/06/18 11:00:13;;;;;;;5.03;4.25;;;;;;;;;;5021003;28;20053;-75
2023/06/18 11:02:39;;;;;;;8.52;4.47;;;;;;;;;;5020023;28;20083;-76
2023/06/18 11:05:05;;;;;;;12.15;4.43;;;;;;;;;;5021186;28;20053;-76
2023/06/18 11:07:31;;;;;;;4.97;4.13;;;;;;;;;;5023565;28;20045;-77
2023/06/18 11:09:59;;;;;;;7.28;4.22;;;;;;;;;;5023068;28;20033;-76
2023/06/18 11:12:29;;;;;;;5.07;4.57;;;;;;;;;;5023568;28;20145;-76
2023/06/18 11:15:18;;;;;;;4.80;4.18;;;;;;;;;;5021090;28;20041;-77
2023/06/18 11:17:52;;;;;;;6.55;4.07;;;;;;;;;;5020849;28;20092;-77
2023/06/18 11:20:22;;;;;;;6.47;3.88;;;;;;;;;;5023024;28;20045;-77
2023/06/18 11:22:55;;;;;;;8.50;4.40;;;;;;;;;;5023791;28;20069;-77
2023/06/18 11:25:22;;;;;;;6.60;4.32;;;;;;;;;;5005900;28;20107;-78
2023/06/18 11:27:50;;;;;;;5.65;4.50;;;;;;;;;;5023518;28;20589;-77
2023/06/18 11:30:17;;;;;;;4.72;4.25;;;;;;;;;;5024385;28;20041;-78
2023/06/18 11:32:44;;;;;;;6.18;4.38;;;;;;;;;;5021660;28;20053;-78
2023/06/18 11:35:10;;;;;;;5.75;4.22;;;;;;;;;;5022859;28;20068;-77
2023/06/18 11:37:44;;;;;;;7.35;4.90;;;;;;;;;;5023448;28;20115;-75
2023/06/18 11:40:10;;;;;;;6.93;3.95;;;;;;;;;;5022836;28;20145;-76
2023/06/18 11:42:37;;;;;;;5.15;4.65;;;;;;;;;;5020217;28;20136;-75
2023/06/18 11:45:06;;;;;;;4.95;4.00;;;;;;;;;;5020962;28;20053;-75
2023/06/18 11:47:34;;;;;;;6.45;4.60;;;;;;;;;;5020267;28;20049;-75
2023/06/18 11:50:00;;;;;;;8.00;4.53;;;;;;;;;;5021155;28;20144;-75
2023/06/18 11:52:27;;;;;;;5.65;4.20;;;;;;;;;;5020684;28;20049;-75
2023/06/18 11:55:00;;;;;;;9.38;4.47;;;;;;;;;;5021109;28;20053;-77
2023/06/18 11:57:26;;;;;;;4.93;4.00;;;;;;;;;;5022451;28;20072;-77
2023/06/18 11:59:53;;;;;;;5.10;4.18;;;;;;;;;;5021170;28;20065;-76
2023/06/18 12:02:21;;;;;;;4.72;4.22;;;;;;;;;;5021173;28;20110;-77
2023/06/18 12:04:47;;;;;;;5.65;4.50;;;;;;;;;;5022508;28;20407;-79
2023/06/18 12:07:17;;;;;;;4.80;4.32;;;;;;;;;;5021648;28;20114;-78
2023/06/18 12:09:44;;;;;;;5.90;4.30;;;;;;;;;;5021101;28;21061;-78
2023/06/18 12:12:21;;;;;;;5.43;3.88;;;;;;;;;;5021368;28;20140;-78
2023/06/18 12:14:52;;;;;;;7.97;4.53;;;;;;;;;;5020020;28;20052;-78
2023/06/18 12:17:46;;;;;;;5.88;5.28;;;;;;;;;;5001037;28;20052;-76
2023/06/18 12:20:13;;;;;;;4.57;3.80;;;;;;;;;;5017621;28;20045;-77
2023/06/18 12:22:40;;;;;;;5.28;4.70;;;;;;;;;;5021037;28;20120;-76
2023/06/18 12:25:06;;;;;;;4.53;4.13;;;;;;;;;;5020739;28;20136;-77
2023/06/18 12:27:34;;;;;;;5.55;4.38;;;;;;;;;;5020136;28;20128;-77
2023/06/18 12:30:02;;;;;;;5.85;4.30;;;;;;;;;;5020705;28;20046;-78
2023/06/18 12:32:27;;;;;;;5.80;4.25;;;;;;;;;;5020323;28;20119;-78
2023/06/18 12:34:52;;;;;;;4.45;4.05;;;;;;;;;;5020206;28;20049;-74
2023/06/18 12:37:18;;;;;;;4.75;4.25;;;;;;;;;;5020398;28;20087;-78
2023/06/18 12:40:10;;;;;;;7.60;4.40;;;;;;;;;;5025947;28;20419;-80
2023/06/18 12:42:36;;;;;;;4.43;4.03;;;;;;;;;;5018833;28;20093;-78
2023/06/18 12:45:02;;;;;;;7.68;4.75;;;;;;;;;;4995368;28;20053;-80
2023/06/18 12:47:29;;;;;;;5.53;4.65;;;;;;;;;;5030288;28;20327;-77
2023/06/18 12:49:54;;;;;;;6.97;4.55;;;;;;;;;;5034707;28;20144;-78
2023/06/18 12:52:21;;;;;;;6.80;4.32;;;;;;;;;;5022200;28;20397;-76
2023/06/18 12:54:47;;;;;;;5.57;4.30;;;;;;;;;;5021297;28;20136;-80
2023/06/18 12:57:15;;;;;;;5.22;4.30;;;;;;;;;;5020994;28;20156;-77
2023/06/18 12:59:51;;;;;;;4.97;4.47;;;;;;;;;;5020397;28;20565;-77
2023/06/18 13:02:19;;;;;;;5.97;4.10;;;;;;;;;;5016885;28;20461;-77
2023/06/18 13:04:45;;;;;;;6.55;4.38;;;;;;;;;;5010619;28;20105;-77
2023/06/18 13:07:11;;;;;;;5.88;4.10;;;;;;;;;;4991693;28;20049;-77
2023/06/18 13:09:38;;;;;;;5.22;4.55;;;;;;;;;;5023336;28;20057;-76
2023/06/18 13:12:04;;;;;;;4.85;4.35;;;;;;;;;;5002504;28;20057;-76
2023/06/18 13:14:30;;;;;;;6.60;4.25;;;;;;;;;;5019365;28;20041;-76
2023/06/18 13:17:01;;;;;;;5.38;4.78;;;;;;;;;;5033700;28;20049;-76
2023/06/18 13:19:30;;;;;;;6.43;4.75;;;;;;;;;;5020093;28;20082;-76
2023/06/18 13:21:56;;;;;;;11.63;4.80;;;;;;;;;;5019479;28;20060;-77
2023/06/18 13:24:21;;;;;;;5.45;4.43;;;;;;;;;;5017996;28;20042;-78
2023/06/18 13:26:46;;;;;;;6.78;4.70;;;;;;;;;;5018584;28;20049;-77
2023/06/18 13:29:12;;;;;;;5.38;4.50;;;;;;;;;;5035409;28;20053;-73
2023/06/18 13:31:38;;;;;;;5.15;4.22;;;;;;;;;;5018105;28;20059;-77
2023/06/18 13:34:03;;;;;;;6.68;4.35;;;;;;;;;;5035027;28;20053;-77
2023/06/18 13:36:29;;;;;;;5.35;4.53;;;;;;;;;;5018626;28;20091;-77
2023/06/18 13:38:54;;;;;;;6.97;4.65;;;;;;;;;;5019995;28;20049;-76
2023/06/18 13:41:19;;;;;;;4.97;4.50;;;;;;;;;;5020696;28;20410;-76
2023/06/18 13:43:45;;;;;;;5.95;4.50;;;;;;;;;;5020941;28;20528;-76
2023/06/18 13:46:10;;;;;;;6.10;5.00;;;;;;;;;;5020989;28;20045;-75
2023/06/18 13:48:36;;;;;;;7.70;4.70;;;;;;;;;;5018855;28;20072;-75
2023/06/18 13:51:01;;;;;;;6.93;4.88;;;;;;;;;;5020786;28;20140;-75
2023/06/18 13:53:27;;;;;;;4.88;4.38;;;;;;;;;;5020865;28;20037;-78
2023/06/18 13:55:52;;;;;;;6.20;4.40;;;;;;;;;;5019211;28;20045;-76
2023/06/18 13:58:18;;;;;;;6.10;4.57;;;;;;;;;;5019965;28;20049;-76
2023/06/18 14:00:45;;;;;;;12.75;10.13;;;;;;;;;;5016200;28;20049;-77
2023/06/18 14:03:10;;;;;;;8.85;6.95;;;;;;;;;;5020129;28;20239;-74
2023/06/18 14:05:36;;;;;;;6.50;4.80;;;;;;;;;;5019145;28;20866;-76
2023/06/18 14:08:03;;;;;;;6.75;5.90;;;;;;;;;;5018107;28;20525;-77
2023/06/18 14:10:29;;;;;;;6.35;4.95;;;;;;;;;;5018609;28;20136;-74
2023/06/18 14:12:55;;;;;;;6.20;4.75;;;;;;;;;;5035245;28;20046;-74
2023/06/18 14:15:20;;;;;;;9.45;5.50;;;;;;;;;;5020711;28;20069;-77
2023/06/18 14:17:46;;;;;;;6.13;4.60;;;;;;;;;;5017168;28;20087;-76
2023/06/18 14:20:13;;;;;;;8.85;4.80;;;;;;;;;;5035800;28;20128;-77
2023/06/18 14:22:39;;;;;;;7.10;5.20;;;;;;;;;;5018358;28;20513;-73
2023/06/18 14:25:05;;;;;;;7.05;4.68;;;;;;;;;;5020740;28;20053;-75
2023/06/18 14:27:31;;;;;;;6.78;4.97;;;;;;;;;;5020612;28;20051;-75
2023/06/18 14:29:57;;;;;;;6.07;4.88;;;;;;;;;;5019686;28;20063;-77
2023/06/18 14:32:23;;;;;;;5.35;4.78;;;;;;;;;;5018620;28;20160;-75
2023/06/18 14:34:50;;;;;;;6.32;4.75;;;;;;;;;;5004172;28;20096;-75
2023/06/18 14:37:23;;;;;;;7.63;4.43;;;;;;;;;;5017325;28;20045;-78
2023/06/18 14:39:49;;;;;;;6.28;5.13;;;;;;;;;;5016780;28;20053;-75
2023/06/18 14:42:15;;;;;;;6.43;5.25;;;;;;;;;;5016696;28;20555;-75